Latest Weather Observations for Banana Bank

IDQ60901

Issued at 10:11 am EST Saturday 28 May 2016 (issued every 10 minutes, with the page automatically refreshed every 10 minutes)

About weather observations | Map of Brisbane area stations | Latest observations for Brisbane area | Other Formats
Station Details ID: 040925 Name: BANANA BANK NORTH BEACON Lat: -27.53 Lon: 153.33 Height: 7.0 m
Data from the previous 72 hours. | See also: Recent months for locations in Queensland
Date/Time
EST
Tmp

°C
App
Tmp
°C
Dew
Point
°C
Rel
Hum
%
Delta-T

°C
Wind Press
QNH
hPa
Press
MSL
hPa
Rain
since
9 am
mm
Dir
 
Spd
km/h
Gust
km/h
Spd
kts
Gust
kts
28/10:00am - - - - - W 15 20 8 11 - - -
28/09:30am - - - - - W 19 24 10 13 - - -
28/09:00am - - - - - W 19 24 10 13 - - -
28/08:30am - - - - - W 11 19 6 10 - - -
28/08:00am - - - - - W 17 19 9 10 - - -
28/07:30am - - - - - W 15 20 8 11 - - -
28/07:00am - - - - - W 15 20 8 11 - - -
28/06:30am - - - - - WNW 13 17 7 9 - - -
28/06:00am - - - - - W 13 17 7 9 - - -
28/05:30am - - - - - WSW 11 19 6 10 - - -
28/05:00am - - - - - WSW 15 22 8 12 - - -
28/04:30am - - - - - WSW 22 28 12 15 - - -
28/04:00am - - - - - WSW 17 22 9 12 - - -
28/03:30am - - - - - W 19 26 10 14 - - -
28/03:00am - - - - - W 22 28 12 15 - - -
28/02:30am - - - - - W 22 28 12 15 - - -
28/02:00am - - - - - W 20 24 11 13 - - -
28/01:30am - - - - - W 17 22 9 12 - - -
28/01:00am - - - - - W 20 24 11 13 - - -
28/12:30am - - - - - W 19 22 10 12 - - -
28/12:00am - - - - - W 24 28 13 15 - - -
 
Date/Time
EST
Tmp

°C
App
Tmp
°C
Dew
Point
°C
Rel
Hum
%
Delta-T

°C
Wind Press
QNH
hPa
Press
MSL
hPa
Rain
since
9 am
mm
Dir
 
Spd
km/h
Gust
km/h
Spd
kts
Gust
kts
27/11:30pm - - - - - W 19 24 10 13 - - -
27/11:00pm - - - - - W 15 20 8 11 - - -
27/10:30pm - - - - - W 13 19 7 10 - - -
27/10:00pm - - - - - WSW 11 17 6 9 - - -
27/09:30pm - - - - - WSW 15 24 8 13 - - -
27/09:00pm - - - - - W 26 32 14 17 - - -
27/08:30pm - - - - - W 28 33 15 18 - - -
27/08:00pm - - - - - W 28 33 15 18 - - -
27/07:30pm - - - - - W 26 37 14 20 - - -
27/07:00pm - - - - - W 28 35 15 19 - - -
27/06:30pm - - - - - W 30 39 16 21 - - -
27/06:00pm - - - - - W 26 35 14 19 - - -
27/05:30pm - - - - - W 28 35 15 19 - - -
27/05:00pm - - - - - W 28 37 15 20 - - -
27/04:30pm - - - - - W 30 41 16 22 - - -
27/04:00pm - - - - - W 30 39 16 21 - - -
27/03:30pm - - - - - W 28 33 15 18 - - -
27/03:00pm - - - - - W 35 48 19 26 - - -
27/02:30pm - - - - - W 33 46 18 25 - - -
27/02:04pm - - - - - WSW 28 50 15 27 - - -
27/02:00pm - - - - - WSW 26 39 14 21 - - -
27/01:44pm - - - - - WSW 32 50 17 27 - - -
27/01:30pm - - - - - W 33 44 18 24 - - -
27/01:00pm - - - - - W 43 54 23 29 - - -
27/12:50pm - - - - - W 35 56 19 30 - - -
27/12:30pm - - - - - W 35 48 19 26 - - -
27/12:00pm - - - - - WNW 35 44 19 24 - - -
27/11:30am - - - - - W 33 44 18 24 - - -
27/11:00am - - - - - WNW 30 37 16 20 - - -
27/10:30am - - - - - W 32 39 17 21 - - -
27/10:00am - - - - - WNW 28 43 15 23 - - -
27/09:30am - - - - - WNW 24 33 13 18 - - -
27/09:00am - - - - - WNW 22 30 12 16 - - -
27/08:30am - - - - - WNW 26 32 14 17 - - -
27/08:00am - - - - - WNW 22 28 12 15 - - -
27/07:30am - - - - - NW 19 22 10 12 - - -
27/07:00am - - - - - NW 17 20 9 11 - - -
27/06:30am - - - - - WNW 20 28 11 15 - - -
27/06:00am - - - - - WNW 20 30 11 16 - - -
27/05:30am - - - - - WNW 19 24 10 13 - - -
27/05:00am - - - - - WNW 17 20 9 11 - - -
27/04:30am - - - - - W 15 20 8 11 - - -
27/04:00am - - - - - W 7 9 4 5 - - -
27/03:30am - - - - - W 9 13 5 7 - - -
27/03:00am - - - - - WNW 11 13 6 7 - - -
27/02:30am - - - - - WNW 9 11 5 6 - - -
27/02:00am - - - - - NW 11 13 6 7 - - -
27/01:30am - - - - - NNW 11 13 6 7 - - -
27/01:00am - - - - - N 13 15 7 8 - - -
27/12:30am - - - - - NNW 15 17 8 9 - - -
27/12:00am - - - - - NNW 17 19 9 10 - - -
 
Date/Time
EST
Tmp

°C
App
Tmp
°C
Dew
Point
°C
Rel
Hum
%
Delta-T

°C
Wind Press
QNH
hPa
Press
MSL
hPa
Rain
since
9 am
mm
Dir
 
Spd
km/h
Gust
km/h
Spd
kts
Gust
kts
26/11:30pm - - - - - WNW 26 30 14 16 - - -
26/11:00pm - - - - - NW 26 35 14 19 - - -
26/10:54pm - - - - - NNW 32 41 17 22 - - -
26/10:30pm - - - - - N 37 44 20 24 - - -
26/10:00pm - - - - - N 37 46 20 25 - - -
26/09:30pm - - - - - N 41 46 22 25 - - -
26/09:00pm - - - - - N 41 52 22 28 - - -
26/08:30pm - - - - - N 43 52 23 28 - - -
26/08:00pm - - - - - N 44 54 24 29 - - -
26/07:30pm - - - - - N 44 52 24 28 - - -
26/07:00pm - - - - - N 43 52 23 28 - - -
26/06:30pm - - - - - N 43 52 23 28 - - -
26/06:00pm - - - - - N 41 50 22 27 - - -
26/05:30pm - - - - - N 37 44 20 24 - - -
26/05:00pm - - - - - N 35 43 19 23 - - -
26/04:30pm - - - - - N 35 43 19 23 - - -
26/04:00pm - - - - - N 33 41 18 22 - - -
26/03:30pm - - - - - N 35 41 19 22 - - -
26/03:00pm - - - - - N 33 39 18 21 - - -
26/02:30pm - - - - - N 33 39 18 21 - - -
26/02:00pm - - - - - N 32 39 17 21 - - -
26/01:30pm - - - - - N 28 35 15 19 - - -
26/01:00pm - - - - - N 30 33 16 18 - - -
26/12:30pm - - - - - N 19 20 10 11 - - -
26/12:00pm - - - - - NNW 15 17 8 9 - - -
26/11:30am - - - - - NNW 11 13 6 7 - - -
26/11:00am - - - - - NNW 11 13 6 7 - - -
26/10:30am - - - - - N 9 13 5 7 - - -
26/10:00am - - - - - NW 7 9 4 5 - - -
26/09:30am - - - - - W 4 6 2 3 - - -
26/09:00am - - - - - W 2 4 1 2 - - -
26/08:30am - - - - - WNW 6 7 3 4 - - -
26/08:00am - - - - - W 6 6 3 3 - - -
26/07:30am - - - - - WSW 4 7 2 4 - - -
26/07:00am - - - - - WSW 6 9 3 5 - - -
26/06:30am - - - - - WSW 11 19 6 10 - - -
26/06:00am - - - - - W 15 19 8 10 - - -
26/05:30am - - - - - W 17 22 9 12 - - -
26/05:00am - - - - - WNW 11 13 6 7 - - -
26/04:30am - - - - - W 7 9 4 5 - - -
26/04:00am - - - - - WNW 6 7 3 4 - - -
26/03:30am - - - - - WNW 9 11 5 6 - - -
26/03:00am - - - - - WNW 7 9 4 5 - - -
26/02:30am - - - - - WNW 9 13 5 7 - - -
26/02:00am - - - - - WNW 9 13 5 7 - - -
26/01:30am - - - - - WNW 13 15 7 8 - - -
26/01:00am - - - - - WNW 13 15 7 8 - - -
26/12:30am - - - - - WNW 15 17 8 9 - - -
26/12:00am - - - - - WNW 17 19 9 10 - - -
 
Date/Time
EST
Tmp

°C
App
Tmp
°C
Dew
Point
°C
Rel
Hum
%
Delta-T

°C
Wind Press
QNH
hPa
Press
MSL
hPa
Rain
since
9 am
mm
Dir
 
Spd
km/h
Gust
km/h
Spd
kts
Gust
kts
25/11:30pm - - - - - WNW 15 17 8 9 - - -
25/11:00pm - - - - - WNW 15 17 8 9 - - -
25/10:30pm - - - - - WNW 13 15 7 8 - - -
25/10:00pm - - - - - WNW 9 13 5 7 - - -
25/09:30pm - - - - - NNW 2 6 1 3 - - -
25/09:00pm - - - - - CALM 0 4 0 2 - - -
25/08:30pm - - - - - CALM 0 0 0 0 - - -
25/08:00pm - - - - - ENE 2 4 1 2 - - -
25/07:30pm - - - - - NNE 4 4 2 2 - - -
25/07:00pm - - - - - NNE 6 6 3 3 - - -
25/06:30pm - - - - - NNE 4 6 2 3 - - -
25/06:00pm - - - - - N 6 7 3 4 - - -
25/05:30pm - - - - - CALM 0 0 0 0 - - -
25/05:00pm - - - - - CALM 0 0 0 0 - - -
25/04:30pm - - - - - CALM 0 0 0 0 - - -
25/04:00pm - - - - - CALM 0 0 0 0 - - -
25/03:30pm - - - - - CALM 0 0 0 0 - - -
25/03:00pm - - - - - N 6 7 3 4 - - -
25/02:30pm - - - - - NNW 7 9 4 5 - - -
25/02:00pm - - - - - CALM 0 0 0 0 - - -
25/01:30pm - - - - - CALM 0 0 0 0 - - -
25/01:00pm - - - - - W 2 4 1 2 - - -
25/12:30pm - - - - - WNW 2 4 1 2 - - -
25/12:00pm - - - - - WNW 2 6 1 3 - - -
25/11:30am - - - - - CALM 0 0 0 0 - - -
25/11:00am - - - - - CALM 0 0 0 0 - - -
25/10:30am - - - - - CALM 0 2 0 1 - - -

Latest Capital City Observations: Canberra | Sydney | Melbourne | Brisbane | Adelaide | Perth | Hobart | Darwin

Other Formats:

Comma delimited format used in spreadsheet applications
http://www.bom.gov.au/fwo/IDQ60901/IDQ60901.94591.axf

JavaScript Object Notation format (JSON) in row-major order
http://www.bom.gov.au/fwo/IDQ60901/IDQ60901.94591.json